Time;durP1;ratioP1;P1;durP2;ratioP2;P2;SDS_P1;SDS_P2;PMS_P1;PMS_P2;Temp;Humidity;BMP_temperature;BMP_pressure;BME280_temperature;BME280_humidity;BME280_pressure;Samples;Min_cycle;Max_cycle;Signal;HPM_P1;HPM_P2
2021/12/07 00:01:39;;;;;;;7.40;3.67;;;;;;;11.82;100.00;99285.72;4972888;28;20073;-77
2021/12/07 00:04:06;;;;;;;6.38;1.73;;;;;;;11.75;100.00;99281.31;4972970;28;20121;-76
2021/12/07 00:06:32;;;;;;;9.23;2.40;;;;;;;11.81;100.00;99277.91;4972998;28;20117;-75
2021/12/07 00:08:57;;;;;;;9.45;2.45;;;;;;;11.86;100.00;99288.31;4972675;28;20203;-75
2021/12/07 00:11:26;;;;;;;7.95;2.28;;;;;;;11.90;100.00;99301.31;4972807;28;20068;-77
2021/12/07 00:13:54;;;;;;;9.68;2.60;;;;;;;11.84;100.00;99296.06;4972797;28;20590;-76
2021/12/07 00:16:19;;;;;;;5.43;2.33;;;;;;;11.86;100.00;99284.00;4972563;28;20525;-75
2021/12/07 00:18:46;;;;;;;7.95;2.33;;;;;;;11.91;100.00;99284.97;5012262;28;20103;-78
2021/12/07 00:21:14;;;;;;;14.35;2.85;;;;;;;11.91;100.00;99282.38;5013937;28;20405;-77
2021/12/07 00:23:40;;;;;;;8.73;2.50;;;;;;;11.84;100.00;99274.50;5013933;28;20721;-75
2021/12/07 00:26:05;;;;;;;8.60;3.05;;;;;;;11.73;100.00;99244.22;5013710;28;20108;-77
2021/12/07 00:28:31;;;;;;;12.02;2.53;;;;;;;11.92;100.00;99272.88;5011573;28;20069;-74
2021/12/07 00:31:08;;;;;;;6.85;2.47;;;;;;;11.81;100.00;99262.41;5013606;28;20171;-75
2021/12/07 00:33:42;;;;;;;13.07;3.15;;;;;;;11.84;100.00;99258.97;5013648;28;20034;-78
2021/12/07 00:36:08;;;;;;;10.05;2.20;;;;;;;11.93;100.00;99270.31;5013649;28;20108;-79
2021/12/07 00:38:34;;;;;;;8.43;2.67;;;;;;;11.78;100.00;99247.72;5013154;28;20180;-74
2021/12/07 00:41:01;;;;;;;7.10;2.15;;;;;;;11.88;100.00;99265.94;5026476;28;20456;-76
2021/12/07 00:43:29;;;;;;;8.65;2.63;;;;;;;11.86;100.00;99270.22;5033193;28;20021;-79
2021/12/07 00:45:57;;;;;;;9.45;3.20;;;;;;;11.86;100.00;99241.78;5033172;28;20033;-76
2021/12/07 00:48:23;;;;;;;6.80;2.00;;;;;;;11.81;100.00;99247.78;5032986;28;20096;-77
2021/12/07 00:50:50;;;;;;;7.65;1.92;;;;;;;11.82;100.00;99243.47;5033354;28;20080;-75
2021/12/07 00:53:16;;;;;;;9.48;2.53;;;;;;;11.72;100.00;99234.72;5032921;28;20396;-78
2021/12/07 00:55:46;;;;;;;6.57;2.30;;;;;;;11.73;100.00;99235.59;5032951;28;20036;-76
2021/12/07 00:58:18;;;;;;;6.38;2.08;;;;;;;11.57;100.00;99216.44;5033130;28;20109;-74
2021/12/07 01:00:46;;;;;;;9.40;2.50;;;;;;;11.78;100.00;99237.38;5032761;28;20380;-77
2021/12/07 01:03:12;;;;;;;8.40;3.30;;;;;;;11.51;100.00;99200.84;5032589;28;20041;-74
2021/12/07 01:05:40;;;;;;;5.43;2.03;;;;;;;11.71;100.00;99232.13;5032943;28;20056;-78
2021/12/07 01:27:03;;;;;;;5.28;2.35;;;;;;;11.45;100.00;99184.44;4971871;28;20118;-75
2021/12/07 01:29:29;;;;;;;9.57;2.25;;;;;;;11.31;100.00;99158.41;4971529;28;20038;-78
2021/12/07 01:32:08;;;;;;;7.78;1.98;;;;;;;11.60;100.00;99203.53;4971179;28;20544;-77
2021/12/07 02:00:50;;;;;;;6.72;1.90;;;;;;;11.28;100.00;99144.59;4951828;29;20034;-77
2021/12/07 02:03:16;;;;;;;6.00;1.80;;;;;;;11.17;100.00;99131.53;4951588;29;20050;-79
2021/12/07 02:05:42;;;;;;;3.55;1.52;;;;;;;11.30;100.00;99146.34;4951507;29;20031;-74
2021/12/07 02:08:08;;;;;;;8.57;2.50;;;;;;;11.30;100.00;99153.22;4951451;29;20622;-74
2021/12/07 02:10:33;;;;;;;6.78;2.08;;;;;;;11.26;100.00;99147.13;4951302;29;20047;-74
2021/12/07 02:14:03;;;;;;;8.23;2.10;;;;;;;11.32;100.00;99154.97;4951286;29;20062;-78
2021/12/07 02:15:46;;;;;;;3.90;1.52;;;;;;;11.23;100.00;99133.34;4950269;28;20061;-78
2021/12/07 02:18:12;;;;;;;10.52;2.13;;;;;;;11.19;100.00;99131.53;4951010;29;20518;-78
2021/12/07 02:20:37;;;;;;;4.93;1.52;;;;;;;11.19;100.00;99135.00;4951325;29;20122;-77
2021/12/07 02:23:06;;;;;;;6.60;2.78;;;;;;;11.29;100.00;99143.72;4951285;29;20047;-76
2021/12/07 02:25:32;;;;;;;3.88;1.75;;;;;;;11.32;100.00;99151.53;4951349;29;20039;-78
2021/12/07 02:27:59;;;;;;;5.07;2.47;;;;;;;11.24;100.00;99140.22;4951202;29;20590;-77
2021/12/07 02:30:26;;;;;;;7.75;2.33;;;;;;;11.33;100.00;99158.44;4993350;28;20579;-75
2021/12/07 02:32:54;;;;;;;5.00;1.80;;;;;;;11.22;100.00;99145.38;5011490;28;20061;-78
2021/12/07 02:35:27;;;;;;;6.20;1.98;;;;;;;11.35;100.00;99158.44;5010307;28;20083;-79
2021/12/07 02:37:54;;;;;;;7.72;2.00;;;;;;;11.36;100.00;99157.59;5011471;28;20038;-77
2021/12/07 02:40:20;;;;;;;8.70;2.05;;;;;;;11.28;100.00;99147.19;5012656;28;20038;-76
2021/12/07 02:42:46;;;;;;;2.92;1.50;;;;;;;11.09;100.00;99113.34;5031103;28;20022;-74
2021/12/07 02:45:12;;;;;;;2.08;1.30;;;;;;;11.37;100.00;99157.59;5031048;28;20032;-75
2021/12/07 02:47:38;;;;;;;5.43;2.25;;;;;;;11.42;100.00;99143.03;5031452;28;20114;-78
2021/12/07 02:50:06;;;;;;;9.25;2.25;;;;;;;11.42;100.00;99166.28;5031021;28;20065;-75
2021/12/07 02:52:31;;;;;;;15.60;2.50;;;;;;;11.35;100.00;99142.94;5031035;28;20021;-78
2021/12/07 02:54:57;;;;;;;4.13;1.77;;;;;;;11.42;100.00;99153.38;5031142;28;20025;-79
2021/12/07 02:57:23;;;;;;;6.15;2.67;;;;;;;11.28;100.00;99129.94;5031128;28;20057;-78
2021/12/07 03:00:16;;;;;;;5.10;1.88;;;;;;;11.41;100.00;99141.28;5030869;28;20030;-78
2021/12/07 03:02:44;;;;;;;9.70;2.20;;;;;;;11.34;100.00;99144.66;5027634;28;20419;-79
2021/12/07 03:27:25;;;;;;;8.90;3.10;;;;;;;11.43;100.00;99125.81;4990987;28;20116;-75
2021/12/07 03:29:50;;;;;;;8.18;2.50;;;;;;;11.34;100.00;99116.25;4992791;28;20053;-76
2021/12/07 03:32:17;;;;;;;4.40;2.20;;;;;;;11.40;100.00;99120.59;4992970;28;20105;-77
2021/12/07 03:34:43;;;;;;;5.70;1.90;;;;;;;11.41;100.00;99123.19;4992986;28;20045;-74
2021/12/07 03:37:08;;;;;;;6.40;2.95;;;;;;;11.36;100.00;99116.25;4992750;28;20034;-78
2021/12/07 03:39:34;;;;;;;4.28;2.40;;;;;;;11.37;100.00;99116.28;4992625;28;20054;-75
2021/12/07 03:41:59;;;;;;;7.70;2.20;;;;;;;11.22;100.00;99096.28;4992636;28;20137;-74
2021/12/07 03:44:25;;;;;;;4.03;2.40;;;;;;;11.41;100.00;99132.69;4998748;28;20046;-79
2021/12/07 03:46:50;;;;;;;6.25;2.00;;;;;;;11.40;100.00;99121.50;5014448;28;20112;-77
2021/12/07 03:49:16;;;;;;;9.43;2.40;;;;;;;11.39;100.00;99124.03;5014414;28;20062;-76
2021/12/07 03:51:42;;;;;;;5.68;2.35;;;;;;;11.19;100.00;99095.38;5014272;28;20049;-76
2021/12/07 03:54:07;;;;;;;7.30;2.50;;;;;;;11.30;100.00;99110.16;5014662;28;20029;-78
2021/12/07 03:56:33;;;;;;;5.47;2.20;;;;;;;11.25;100.00;99104.09;5014697;28;20033;-76
2021/12/07 03:58:59;;;;;;;8.77;3.30;;;;;;;11.11;100.00;99080.63;5014354;28;20034;-75
2021/12/07 04:01:25;;;;;;;6.32;2.78;;;;;;;11.26;100.00;99121.28;5014336;28;20111;-78
2021/12/07 04:03:52;;;;;;;4.97;2.50;;;;;;;11.25;100.00;99101.50;5014025;28;20473;-75
2021/12/07 04:06:19;;;;;;;6.10;2.45;;;;;;;11.25;100.00;99104.09;4979755;28;20041;-75
2021/12/07 04:08:45;;;;;;;2.03;1.58;;;;;;;11.24;100.00;99107.50;5014079;28;20109;-77
2021/12/07 04:11:11;;;;;;;9.23;3.00;;;;;;;11.23;100.00;99116.09;4996980;28;20484;-77
2021/12/07 04:13:38;;;;;;;7.28;2.90;;;;;;;11.22;100.00;99118.69;4972296;28;20752;-76
2021/12/07 04:16:08;;;;;;;5.15;2.47;;;;;;;11.16;100.00;99117.75;4972940;28;20101;-75
2021/12/07 04:18:34;;;;;;;7.95;3.22;;;;;;;11.21;100.00;99130.72;4972444;28;20039;-75
2021/12/07 04:21:03;;;;;;;7.97;3.03;;;;;;;11.15;100.00;99125.47;4972590;28;20070;-78
2021/12/07 04:23:34;;;;;;;8.15;3.38;;;;;;;11.17;100.00;99116.88;4972572;28;20047;-80
2021/12/07 04:26:01;;;;;;;8.23;3.17;;;;;;;11.13;100.00;99106.50;4972658;28;20030;-78
2021/12/07 04:28:27;;;;;;;6.38;2.85;;;;;;;11.02;100.00;99097.75;4972446;28;20501;-78
2021/12/07 04:30:52;;;;;;;8.68;3.80;;;;;;;11.15;100.00;99146.13;4972502;28;20070;-77
2021/12/07 04:33:18;;;;;;;7.32;3.50;;;;;;;10.98;100.00;99108.03;4972332;28;20043;-79
2021/12/07 04:35:49;;;;;;;6.78;3.53;;;;;;;11.15;100.00;99139.25;4972375;28;20071;-76
2021/12/07 04:38:17;;;;;;;9.05;3.97;;;;;;;11.14;100.00;99134.94;4971281;28;20031;-80
2021/12/07 04:40:43;;;;;;;6.30;3.83;;;;;;;11.09;100.00;99134.00;4971831;28;20065;-77
2021/12/07 04:43:09;;;;;;;7.45;3.58;;;;;;;10.98;100.00;99120.94;4955951;28;20027;-76
2021/12/07 04:59:06;;;;;;;6.88;3.55;;;;;;;11.19;100.00;99113.44;4991657;28;20042;-75
2021/12/07 05:01:33;;;;;;;8.35;4.25;;;;;;;11.25;100.00;99116.13;4991419;28;20042;-76
2021/12/07 05:04:04;;;;;;;4.55;3.17;;;;;;;11.25;100.00;99087.69;4991289;28;20065;-75
2021/12/07 05:06:32;;;;;;;6.35;3.90;;;;;;;11.24;100.00;99098.88;4991120;28;20130;-79
2021/12/07 05:09:05;;;;;;;6.63;3.05;;;;;;;11.29;100.00;99099.78;4991096;28;20034;-76
2021/12/07 05:11:49;;;;;;;6.85;3.72;;;;;;;11.28;100.00;99082.59;4991202;28;20089;-78
2021/12/07 05:14:26;;;;;;;11.70;4.03;;;;;;;11.14;100.00;99080.69;4991226;28;20109;-78
2021/12/07 05:38:30;;;;;;;7.38;4.22;;;;;;;11.23;100.00;99071.34;4951916;29;20576;-76
2021/12/07 05:40:56;;;;;;;7.78;5.22;;;;;;;11.12;100.00;99055.69;4957213;28;20055;-79
2021/12/07 05:43:21;;;;;;;9.82;5.00;;;;;;;11.19;100.00;99061.78;4971039;28;20027;-78
2021/12/07 05:45:47;;;;;;;8.38;4.20;;;;;;;11.26;100.00;99054.13;4964404;28;20082;-79
2021/12/07 05:48:13;;;;;;;8.77;5.15;;;;;;;11.25;100.00;99054.13;4970664;28;20037;-74
2021/12/07 05:50:40;;;;;;;7.72;3.60;;;;;;;11.06;100.00;99028.06;4970600;28;20092;-76
2021/12/07 05:53:08;;;;;;;10.68;5.28;;;;;;;11.27;100.00;99063.63;4970770;28;20031;-75
2021/12/07 05:55:34;;;;;;;7.90;4.70;;;;;;;11.28;100.00;99051.59;4970699;28;20604;-76
2021/12/07 05:58:00;;;;;;;8.60;4.68;;;;;;;11.17;100.00;99018.72;4969932;28;20046;-75
2021/12/07 06:00:28;;;;;;;6.22;3.50;;;;;;;11.29;100.00;99038.66;4970723;28;20254;-78
2021/12/07 06:02:57;;;;;;;7.50;4.10;;;;;;;11.30;100.00;99050.75;4970639;28;20035;-78
2021/12/07 06:05:24;;;;;;;7.43;3.75;;;;;;;11.30;100.00;99037.81;5021290;28;20103;-77
2021/12/07 06:07:50;;;;;;;7.57;4.18;;;;;;;11.29;100.00;99041.25;5031790;28;20036;-78
2021/12/07 06:10:16;;;;;;;9.25;4.97;;;;;;;11.32;100.00;99054.19;5031474;28;20116;-78
2021/12/07 06:12:42;;;;;;;9.27;3.67;;;;;;;11.35;100.00;99065.41;5031797;28;20026;-78
2021/12/07 06:15:08;;;;;;;6.07;3.13;;;;;;;11.38;100.00;99073.22;5031226;28;20021;-78
2021/12/07 06:17:33;;;;;;;9.27;4.38;;;;;;;11.39;100.00;99080.09;5031268;28;20071;-77
2021/12/07 06:19:59;;;;;;;8.93;4.22;;;;;;;11.45;100.00;99091.41;5031473;28;20033;-78
2021/12/07 06:22:27;;;;;;;7.25;4.30;;;;;;;11.42;100.00;99127.53;5031547;28;20435;-78
2021/12/07 06:24:53;;;;;;;9.50;5.55;;;;;;;11.43;100.00;99157.69;5031527;28;20031;-80
2021/12/07 06:27:18;;;;;;;6.40;3.05;;;;;;;11.37;100.00;99170.53;5031537;28;20108;-78
2021/12/07 06:29:43;;;;;;;4.97;1.70;;;;;;;11.26;100.00;99154.03;5031284;28;20021;-78
2021/12/07 06:32:09;;;;;;;5.47;1.83;;;;;;;10.84;100.00;99101.81;5031733;28;20049;-77
2021/12/07 06:34:35;;;;;;;9.90;3.08;;;;;;;11.06;100.00;99146.88;5031103;28;20037;-77
2021/12/07 06:37:03;;;;;;;5.00;2.92;;;;;;;11.05;100.00;99145.13;5031440;28;20095;-76
2021/12/07 06:39:28;;;;;;;7.70;4.10;;;;;;;10.96;100.00;99129.53;5031553;28;20039;-77
2021/12/07 06:41:54;;;;;;;6.63;3.97;;;;;;;10.99;100.00;99125.28;5030803;28;20045;-76
2021/12/07 06:44:19;;;;;;;8.02;4.40;;;;;;;10.82;100.00;99096.63;5029984;28;20029;-76
2021/12/07 06:46:48;;;;;;;9.52;5.45;;;;;;;10.88;100.00;99095.84;5030643;28;20053;-75
2021/12/07 06:49:15;;;;;;;7.60;4.32;;;;;;;11.14;100.00;99137.53;5031171;28;20068;-75
2021/12/07 06:51:40;;;;;;;16.60;8.13;;;;;;;11.14;100.00;99140.09;5031073;28;20087;-77
2021/12/07 06:54:06;;;;;;;12.38;6.72;;;;;;;11.13;100.00;99134.94;5016263;28;20034;-77
2021/12/07 06:56:31;;;;;;;9.98;5.25;;;;;;;11.18;100.00;99128.09;5011531;28;20041;-77
2021/12/07 06:58:57;;;;;;;14.95;7.70;;;;;;;11.16;100.00;99120.34;5012467;28;20053;-77
2021/12/07 07:01:23;;;;;;;8.27;5.20;;;;;;;11.15;100.00;99135.78;5011432;28;20113;-77
2021/12/07 07:03:48;;;;;;;16.17;12.07;;;;;;;11.07;100.00;99120.19;5015294;28;20030;-77
2021/12/07 07:06:14;;;;;;;14.88;8.07;;;;;;;10.96;100.00;99093.38;5015359;28;20084;-77
2021/12/07 07:08:39;;;;;;;9.95;5.88;;;;;;;10.94;100.00;99092.47;5018736;28;20475;-76
2021/12/07 07:11:05;;;;;;;11.80;5.22;;;;;;;10.98;100.00;99094.28;5034902;28;20022;-76
2021/12/07 07:13:31;;;;;;;12.90;6.15;;;;;;;10.83;100.00;99053.63;5034865;28;20032;-76
2021/12/07 07:15:58;;;;;;;13.23;6.55;;;;;;;11.10;100.00;99078.94;5034811;28;20024;-75
2021/12/07 07:18:24;;;;;;;8.77;5.50;;;;;;;10.84;100.00;99040.72;5034402;28;20496;-77
2021/12/07 07:20:49;;;;;;;10.23;5.47;;;;;;;11.00;100.00;99054.72;5017048;28;20025;-74
2021/12/07 07:23:15;;;;;;;8.27;4.57;;;;;;;11.10;100.00;99073.78;5034433;28;20021;-76
2021/12/07 07:25:40;;;;;;;10.43;5.40;;;;;;;11.11;100.00;99078.06;5034732;28;20025;-72
2021/12/07 07:28:06;;;;;;;7.00;4.93;;;;;;;10.94;100.00;99040.84;5034490;28;20072;-74
2021/12/07 07:30:31;;;;;;;9.15;4.90;;;;;;;11.12;100.00;99063.44;5030132;28;20120;-73
2021/12/07 07:32:57;;;;;;;10.25;4.95;;;;;;;11.12;100.00;99072.06;5031562;28;20073;-78
2021/12/07 07:35:22;;;;;;;7.80;4.13;;;;;;;11.04;100.00;99067.63;5032489;28;20029;-74
2021/12/07 07:37:48;;;;;;;7.28;3.92;;;;;;;11.11;100.00;99067.72;5033748;28;20030;-76
2021/12/07 07:40:17;;;;;;;9.40;4.68;;;;;;;10.90;100.00;99028.75;5016837;28;20040;-76
2021/12/07 07:43:16;;;;;;;7.97;4.03;;;;;;;11.16;100.00;99081.59;5033573;28;20044;-75
2021/12/07 07:45:43;;;;;;;5.70;4.03;;;;;;;11.19;100.00;99072.13;4964880;28;20289;-78
2021/12/07 07:48:09;;;;;;;7.93;3.70;;;;;;;11.15;100.00;99072.09;4958309;28;20118;-78
2021/12/07 07:50:36;;;;;;;7.78;4.32;;;;;;;11.24;100.00;99080.78;4972116;28;20118;-78
2021/12/07 07:53:02;;;;;;;8.20;4.65;;;;;;;11.33;100.00;99086.09;4956175;28;20039;-76
2021/12/07 07:55:28;;;;;;;6.30;4.00;;;;;;;11.32;100.00;99082.63;4971774;28;20023;-76
2021/12/07 07:57:53;;;;;;;9.15;4.55;;;;;;;11.34;100.00;99077.50;4971447;28;20105;-77
2021/12/07 08:00:21;;;;;;;8.48;3.75;;;;;;;11.33;100.00;99076.59;4971907;28;20490;-77
2021/12/07 08:02:47;;;;;;;11.00;3.45;;;;;;;11.41;100.00;99081.00;4972936;28;20469;-76
2021/12/07 08:05:13;;;;;;;10.80;4.38;;;;;;;11.40;100.00;99064.63;4972522;28;20045;-73
2021/12/07 08:07:39;;;;;;;10.55;3.83;;;;;;;11.38;100.00;99076.66;4972929;28;20106;-74
2021/12/07 08:10:07;;;;;;;7.78;4.07;;;;;;;11.45;100.00;99070.72;4964129;28;20098;-74
2021/12/07 08:12:33;;;;;;;10.30;4.72;;;;;;;11.49;100.00;99087.13;4937894;28;20048;-74
2021/12/07 08:14:59;;;;;;;7.47;3.88;;;;;;;11.48;100.00;99091.41;4950589;28;20055;-74
2021/12/07 08:17:24;;;;;;;10.48;4.93;;;;;;;11.51;100.00;99094.88;4952497;28;20074;-74
2021/12/07 08:19:50;;;;;;;9.60;4.57;;;;;;;11.20;100.00;99040.28;4951866;28;20490;-72
2021/12/07 08:22:17;;;;;;;10.75;4.30;;;;;;;11.39;100.00;99075.81;4952366;28;20039;-76
2021/12/07 08:24:43;;;;;;;9.95;4.18;;;;;;;11.52;100.00;99096.63;4960858;28;20073;-75
2021/12/07 08:27:08;;;;;;;9.63;3.88;;;;;;;11.45;100.00;99073.31;4952042;28;20039;-75
2021/12/07 08:29:34;;;;;;;7.82;3.88;;;;;;;11.49;100.00;99082.81;5004625;28;20143;-75
2021/12/07 08:31:59;;;;;;;6.22;3.45;;;;;;;11.43;100.00;99069.81;5031271;28;20406;-77
2021/12/07 08:34:25;;;;;;;9.93;4.50;;;;;;;11.23;100.00;99033.44;5016070;28;20030;-74
2021/12/07 08:36:50;;;;;;;7.55;3.70;;;;;;;11.29;100.00;99058.44;5013449;28;20030;-76
2021/12/07 08:39:16;;;;;;;8.10;3.83;;;;;;;11.47;100.00;99074.16;4979070;28;20049;-75
2021/12/07 08:41:42;;;;;;;7.80;3.08;;;;;;;11.43;100.00;99051.72;5014143;28;20654;-77
2021/12/07 08:44:08;;;;;;;7.78;3.20;;;;;;;11.27;100.00;99027.44;5027829;28;20439;-77
2021/12/07 08:46:34;;;;;;;8.50;4.03;;;;;;;11.39;100.00;99038.75;5033872;28;20099;-77
2021/12/07 08:48:59;;;;;;;7.72;3.55;;;;;;;11.30;100.00;99024.91;5032621;28;20450;-77
2021/12/07 08:51:26;;;;;;;8.10;3.42;;;;;;;11.28;100.00;99023.16;5033635;28;20137;-77
2021/12/07 08:53:59;;;;;;;10.07;3.45;;;;;;;11.56;100.00;99055.31;5033186;28;20032;-77
2021/12/07 09:01:54;;;;;;;11.52;4.80;;;;;;;11.70;100.00;99045.13;5032346;28;20044;-77
2021/12/07 09:04:20;;;;;;;11.57;5.85;;;;;;;11.75;100.00;99035.69;5032359;28;20084;-77
2021/12/07 09:06:47;;;;;;;13.00;3.85;;;;;;;11.88;100.00;99044.41;5032759;28;20029;-77
2021/12/07 09:09:13;;;;;;;9.52;3.50;;;;;;;11.84;100.00;99032.31;5032426;28;20041;-77
2021/12/07 09:11:40;;;;;;;10.25;3.35;;;;;;;11.94;100.00;99041.03;5032948;28;20024;-77
2021/12/07 09:14:10;;;;;;;10.43;3.58;;;;;;;11.97;100.00;99034.19;5032561;28;20030;-77
2021/12/07 09:16:36;;;;;;;11.23;3.05;;;;;;;11.88;100.00;99015.09;5032597;28;20033;-77
2021/12/07 09:19:03;;;;;;;12.55;3.35;;;;;;;11.92;100.00;99029.78;5032505;28;20547;-77
2021/12/07 09:21:28;;;;;;;9.20;3.13;;;;;;;11.87;100.00;99011.63;5030544;28;20522;-75
2021/12/07 09:23:54;;;;;;;10.40;3.05;;;;;;;11.98;100.00;99040.22;5029279;28;20029;-75
2021/12/07 09:26:19;;;;;;;12.40;2.78;;;;;;;11.94;100.00;99031.53;5032555;28;20068;-75
2021/12/07 09:28:45;;;;;;;7.88;3.03;;;;;;;11.93;100.00;99034.09;5015311;28;20396;-75
2021/12/07 09:31:11;;;;;;;11.13;3.40;;;;;;;11.81;100.00;99022.81;5032774;28;20479;-74
2021/12/07 09:33:37;;;;;;;15.02;4.28;;;;;;;11.82;100.00;99021.06;5031686;28;20119;-75
2021/12/07 09:36:05;;;;;;;8.00;3.03;;;;;;;11.68;100.00;99005.44;5032728;28;20332;-75
2021/12/07 09:38:30;;;;;;;9.40;2.78;;;;;;;11.86;100.00;99025.41;5032468;28;20495;-74
2021/12/07 09:40:56;;;;;;;8.73;2.97;;;;;;;11.80;100.00;99028.84;5027153;28;20052;-75
2021/12/07 09:43:22;;;;;;;11.88;3.42;;;;;;;11.80;100.00;99035.69;5031995;28;20030;-74
2021/12/07 09:45:48;;;;;;;8.70;3.00;;;;;;;11.72;100.00;99021.84;5021303;28;20026;-74
2021/12/07 09:48:16;;;;;;;9.95;3.03;;;;;;;11.68;100.00;99014.94;5022901;28;20048;-74
2021/12/07 09:50:45;;;;;;;7.88;2.88;;;;;;;11.72;100.00;99030.47;5021270;28;20499;-75
2021/12/07 09:53:13;;;;;;;9.48;3.17;;;;;;;11.72;100.00;99027.03;5021218;28;20025;-75
2021/12/07 09:55:39;;;;;;;10.80;3.17;;;;;;;11.65;100.00;99013.16;5029240;28;20498;-74
2021/12/07 09:58:06;;;;;;;9.15;3.25;;;;;;;11.68;100.00;99015.78;5031564;28;20034;-74
2021/12/07 10:00:33;;;;;;;10.70;3.97;;;;;;;11.48;100.00;98971.69;5031388;28;20567;-74
2021/12/07 10:02:59;;;;;;;11.93;4.60;;;;;;;11.63;100.00;99007.13;5029662;28;20022;-74
2021/12/07 10:05:29;;;;;;;11.65;5.20;;;;;;;11.44;100.00;98973.38;5031699;28;20104;-74
2021/12/07 10:07:55;;;;;;;9.48;4.60;;;;;;;11.60;100.00;98994.16;5013847;28;20553;-75
2021/12/07 10:10:48;;;;;;;11.65;4.72;;;;;;;11.59;100.00;98979.50;5032102;28;20022;-75
2021/12/07 10:13:15;;;;;;;10.35;4.22;;;;;;;11.54;100.00;98968.25;5028573;28;20036;-75
2021/12/07 10:15:41;;;;;;;10.77;4.75;;;;;;;11.54;100.00;98976.00;5020376;28;20053;-78
2021/12/07 10:18:17;;;;;;;10.70;3.78;;;;;;;11.51;100.00;98971.69;5017343;28;20025;-77
2021/12/07 10:20:44;;;;;;;11.13;5.38;;;;;;;11.52;100.00;98967.41;4977927;28;20483;-77
2021/12/07 10:23:19;;;;;;;9.77;3.80;;;;;;;11.48;100.00;98963.94;5011218;28;20030;-77
2021/12/07 10:26:07;;;;;;;9.05;3.85;;;;;;;11.44;100.00;98938.88;5011859;28;20029;-77
2021/12/07 10:28:38;;;;;;;8.85;3.20;;;;;;;11.42;100.00;98945.78;5012138;28;20400;-77
2021/12/07 10:31:07;;;;;;;9.15;3.40;;;;;;;11.42;100.00;98949.22;5016821;28;20521;-77
2021/12/07 10:33:58;;;;;;;6.88;2.95;;;;;;;11.15;100.00;98901.63;5027052;28;20033;-76
2021/12/07 10:36:25;;;;;;;9.80;3.20;;;;;;;11.32;100.00;98929.31;5026071;28;20030;-74
2021/12/07 10:38:56;;;;;;;11.73;4.22;;;;;;;11.23;100.00;98924.09;4995017;28;20183;-74
2021/12/07 10:41:24;;;;;;;11.35;2.88;;;;;;;11.04;100.00;98890.34;5028744;28;20404;-74
2021/12/07 10:43:52;;;;;;;9.45;2.22;;;;;;;11.21;100.00;98911.13;5029810;28;20427;-74
2021/12/07 10:46:45;;;;;;;8.48;2.45;;;;;;;11.27;100.00;98926.69;5029611;28;20018;-74
2021/12/07 10:49:32;;;;;;;9.85;3.13;;;;;;;11.26;100.00;98913.78;5030211;28;20098;-74
2021/12/07 10:52:30;;;;;;;8.43;2.33;;;;;;;11.29;100.00;98914.66;4990548;28;20128;-74
2021/12/07 10:55:01;;;;;;;5.78;2.47;;;;;;;11.29;100.00;98908.63;5024391;28;20152;-74
2021/12/07 10:57:32;;;;;;;6.40;2.00;;;;;;;11.30;100.00;98916.41;5026796;28;20041;-74
2021/12/07 11:00:16;;;;;;;11.93;2.45;;;;;;;11.26;100.00;98903.44;5030107;28;20026;-73
2021/12/07 11:02:46;;;;;;;10.40;2.30;;;;;;;11.30;100.00;98910.34;5029871;28;20017;-84
2021/12/07 11:05:22;;;;;;;6.65;1.80;;;;;;;11.06;100.00;98865.38;5029700;28;20026;-82
2021/12/07 11:07:47;;;;;;;9.75;2.35;;;;;;;11.23;100.00;98906.00;5026688;28;20046;-83
2021/12/07 11:10:19;;;;;;;8.00;2.80;;;;;;;11.23;100.00;98904.28;5028331;28;20037;-74
2021/12/07 11:12:51;;;;;;;10.00;2.38;;;;;;;11.25;100.00;98904.28;5027597;28;20116;-75
2021/12/07 11:15:24;;;;;;;9.38;2.33;;;;;;;11.21;100.00;98899.94;5029204;28;20115;-73
2021/12/07 11:17:52;;;;;;;12.77;1.90;;;;;;;11.07;100.00;98874.84;5027173;28;20038;-71
2021/12/07 11:20:18;;;;;;;7.95;2.40;;;;;;;11.04;100.00;98877.44;5029781;28;20036;-75
2021/12/07 11:23:07;;;;;;;6.25;1.83;;;;;;;11.06;100.00;98883.44;5030098;28;20112;-76
2021/12/07 11:31:29;;;;;;;6.60;3.45;;;;;;;10.84;100.00;98839.38;4988586;28;20046;-74
2021/12/07 11:34:23;;;;;;;9.48;2.88;;;;;;;10.81;100.00;98848.78;4949955;28;20043;-72
2021/12/07 11:37:01;;;;;;;7.78;2.75;;;;;;;11.01;100.00;98890.28;4950289;28;20490;-72
2021/12/07 11:39:52;;;;;;;7.95;2.88;;;;;;;11.00;100.00;98875.63;4947397;28;20529;-74
2021/12/07 11:42:20;;;;;;;6.40;2.20;;;;;;;10.96;100.00;98882.50;4947405;28;20044;-77
2021/12/07 11:44:48;;;;;;;9.95;2.35;;;;;;;10.95;100.00;98874.72;4948539;28;20036;-73
2021/12/07 11:47:14;;;;;;;11.32;2.85;;;;;;;10.90;100.00;98886.75;4948057;28;20042;-77
2021/12/07 11:49:40;;;;;;;6.90;1.83;;;;;;;10.68;100.00;98838.34;4935274;28;20035;-73
2021/12/07 11:52:09;;;;;;;4.18;1.75;;;;;;;10.86;100.00;98870.34;4950104;28;20035;-74
2021/12/07 11:54:38;;;;;;;8.15;2.15;;;;;;;10.94;100.00;98878.16;4954019;28;20045;-76
2021/12/07 11:57:06;;;;;;;6.07;1.45;;;;;;;10.91;100.00;98871.25;4952473;28;20587;-74
2021/12/07 11:59:33;;;;;;;9.77;1.90;;;;;;;10.93;100.00;98877.31;4952338;28;20039;-75
2021/12/07 12:01:59;;;;;;;9.05;3.08;;;;;;;10.94;100.00;98870.41;4952764;28;20505;-75
2021/12/07 12:04:25;;;;;;;4.68;1.20;;;;;;;10.89;100.00;98862.66;4968323;28;20041;-73
2021/12/07 12:06:54;;;;;;;5.63;1.58;;;;;;;10.78;100.00;98828.97;4993453;28;20525;-74
2021/12/07 12:09:21;;;;;;;3.97;1.10;;;;;;;10.71;100.00;98818.59;5034004;28;20034;-77
2021/12/07 12:11:53;;;;;;;5.30;1.50;;;;;;;10.92;100.00;98852.34;5029097;28;20308;-75
2021/12/07 12:14:18;;;;;;;6.30;1.50;;;;;;;10.94;100.00;98849.75;5032261;28;20021;-74
2021/12/07 12:17:08;;;;;;;5.13;1.75;;;;;;;10.96;100.00;98842.91;5028528;28;20044;-72
2021/12/07 12:20:17;;;;;;;4.63;1.30;;;;;;;10.98;100.00;98841.22;5030546;28;20105;-77
2021/12/07 12:22:52;;;;;;;5.15;1.50;;;;;;;11.01;100.00;98838.66;5015772;28;20060;-78
2021/12/07 12:25:22;;;;;;;6.63;1.70;;;;;;;11.00;100.00;98831.75;5033410;28;20044;-80
2021/12/07 12:27:50;;;;;;;5.40;1.60;;;;;;;10.77;100.00;98804.00;5026887;28;20074;-77
2021/12/07 12:30:39;;;;;;;9.45;1.75;;;;;;;10.81;100.00;98810.91;5029653;28;20041;-74
2021/12/07 12:33:08;;;;;;;4.63;1.35;;;;;;;10.88;100.00;98821.31;5023139;28;20549;-74
2021/12/07 12:35:48;;;;;;;5.88;1.30;;;;;;;10.89;100.00;98826.50;5025303;28;20033;-76
2021/12/07 12:38:34;;;;;;;5.45;1.30;;;;;;;10.81;100.00;98812.66;5027330;28;20033;-76
2021/12/07 12:41:09;;;;;;;7.53;1.75;;;;;;;10.83;100.00;98810.97;5031618;28;20057;-74
2021/12/07 12:43:54;;;;;;;7.45;1.48;;;;;;;10.74;100.00;98793.66;5032276;28;20032;-78
2021/12/07 12:46:31;;;;;;;7.47;1.60;;;;;;;10.59;100.00;98754.81;5032252;28;20028;-77
2021/12/07 12:49:01;;;;;;;4.63;1.10;;;;;;;10.60;100.00;98762.53;5028207;28;20048;-76
2021/12/07 12:51:41;;;;;;;2.80;1.20;;;;;;;10.70;100.00;98778.97;5032657;28;20025;-77
2021/12/07 12:54:08;;;;;;;4.07;1.80;;;;;;;10.48;100.00;98758.16;5030594;28;20447;-75
2021/12/07 12:56:36;;;;;;;8.90;1.40;;;;;;;10.67;100.00;98789.28;5033037;28;20033;-78
2021/12/07 12:59:05;;;;;;;3.80;1.02;;;;;;;10.67;100.00;98785.00;5032525;28;20026;-78
2021/12/07 13:01:35;;;;;;;6.63;1.23;;;;;;;10.65;100.00;98797.03;5032703;28;20029;-76
2021/12/07 13:04:12;;;;;;;6.60;1.38;;;;;;;10.68;100.00;98796.19;5032329;28;20039;-80
2021/12/07 13:06:54;;;;;;;8.77;1.30;;;;;;;10.70;100.00;98793.63;5032713;28;20029;-78
2021/12/07 13:09:19;;;;;;;3.13;1.00;;;;;;;10.67;100.00;98797.03;5032452;28;20026;-78
2021/12/07 13:11:44;;;;;;;5.35;1.23;;;;;;;10.70;100.00;98803.94;5032321;28;20048;-76
2021/12/07 13:14:30;;;;;;;4.82;1.15;;;;;;;10.62;100.00;98790.97;5032513;28;20029;-77
2021/12/07 13:17:33;;;;;;;3.65;1.17;;;;;;;10.56;100.00;98790.91;5032290;28;20510;-79
2021/12/07 13:20:01;;;;;;;4.20;1.42;;;;;;;10.67;100.00;98802.19;5032248;28;20483;-73
2021/12/07 13:23:01;;;;;;;2.63;1.08;;;;;;;10.68;100.00;98793.63;5032162;28;20491;-80
2021/12/07 13:25:43;;;;;;;;;;;;;;;10.73;100.00;98796.22;4991002;28;20070;-74
2021/12/07 13:28:25;;;;;;;3.35;1.00;;;;;;;10.70;100.00;98796.19;4990749;28;19914;-75